sensor_id;sensor_type;location;lat;lon;timestamp;pressure;altitude;pressure_sealevel;temperature;humidity
15558;BME280;7880;50.110;9.372;2023-04-08T00:00:25;3.473796688724542;;;3.125;100.0
15558;BME280;7880;50.110;9.372;2023-04-08T00:05:29;2.979692359972978;;;2.812;100.0
15558;BME280;7880;50.110;9.372;2023-04-08T00:10:36;3.0855716236867012;;;2.812;100.0
15558;BME280;7880;50.110;9.372;2023-04-08T00:15:43;3.125906615052372;;;2.687;100.0
15558;BME280;7880;50.110;9.372;2023-04-08T00:20:21;3.0855716236867012;;;2.687;100.0
15558;BME280;7880;50.110;9.372;2023-04-08T00:25:27;3.3023724212835077;;;2.937;100.0
15558;BME280;7880;50.110;9.372;2023-04-08T00:30:31;3.231786056008423;;;2.937;100.0
15558;BME280;7880;50.110;9.372;2023-04-08T00:35:36;3.1662416250444947;;;2.812;100.0
15558;BME280;7880;50.110;9.372;2023-04-08T00:40:42;3.1511159941146616;;;2.75;100.0
15558;BME280;7880;50.110;9.372;2023-04-08T00:45:47;3.095655369781889;;;2.687;100.0
15558;BME280;7880;50.110;9.372;2023-04-08T00:50:52;2.974650493473746;;;2.625;100.0
15558;BME280;7880;50.110;9.372;2023-04-08T00:55:57;2.697348284214968;;;2.312;100.0
15558;BME280;7880;50.110;9.372;2023-04-08T01:01:11;2.86372950412333;;;2.437;100.0
15558;BME280;7880;50.110;9.372;2023-04-08T01:06:14;3.05027852152125;;;2.625;100.0
15558;BME280;7880;50.110;9.372;2023-04-08T01:11:13;2.8990225309098605;;;2.625;100.0
15558;BME280;7880;50.110;9.372;2023-04-08T01:16:17;2.8435620666481554;;;2.5;100.0
15558;BME280;7880;50.110;9.372;2023-04-08T01:21:23;2.7023901347070933;;;2.437;100.0
15558;BME280;7880;50.110;9.372;2023-04-08T01:26:50;2.636846101010451;;;2.187;100.0
15558;BME280;7880;50.110;9.372;2023-04-08T01:31:42;2.5057581811735874;;;2.187;100.0
15558;BME280;7880;50.110;9.372;2023-04-08T01:36:46;2.485590826353291;;;2.125;100.0
15558;BME280;7880;50.110;9.372;2023-04-08T01:41:52;2.1982065261341632;;;1.875;100.0
15558;BME280;7880;50.110;9.372;2023-04-08T01:46:58;2.2133319920452776;;;1.937;100.0
15558;BME280;7880;50.110;9.372;2023-04-08T01:51:59;2.248624756024219;;;1.937;100.0
15558;BME280;7880;50.110;9.372;2023-04-08T01:57:11;2.0368683860637247;;;1.875;100.0
15558;BME280;7880;50.110;9.372;2023-04-08T02:02:10;1.880572347069392;;;1.625;100.0
15558;BME280;7880;50.110;9.372;2023-04-08T02:07:22;2.3393776431679725;;;1.875;100.0
15558;BME280;7880;50.110;9.372;2023-04-08T02:12:19;2.329293984384276;;;2.062;100.0
15558;BME280;7880;50.110;9.372;2023-04-08T02:17:31;2.5965113354905043;;;2.312;100.0
15558;BME280;7880;50.110;9.372;2023-04-08T02:22:38;2.3797122899442913;;;2.125;100.0
15558;BME280;7880;50.110;9.372;2023-04-08T02:27:36;2.304084842518205;;;2.125;100.0
15558;BME280;7880;50.110;9.372;2023-04-08T02:32:42;2.2284574605757372;;;2.062;100.0
15558;BME280;7880;50.110;9.372;2023-04-08T02:37:47;2.117537418846041;;;1.875;100.0
15558;BME280;7880;50.110;9.372;2023-04-08T02:42:51;2.2234156374412124;;;1.875;100.0
15558;BME280;7880;50.110;9.372;2023-04-08T02:47:56;2.1477883253479377;;;1.875;100.0
15558;BME280;7880;50.110;9.372;2023-04-08T02:53:02;2.117537418846041;;;1.812;100.0
15558;BME280;7880;50.110;9.372;2023-04-08T02:58:06;1.996533897612244;;;1.75;100.0
15558;BME280;7880;50.110;9.372;2023-04-08T03:03:16;2.0419101984298322;;;1.687;100.0
15558;BME280;7880;50.110;9.372;2023-04-08T03:08:16;1.9108231714984867;;;1.687;100.0
15558;BME280;7880;50.110;9.372;2023-04-08T03:13:21;1.7898199366463814;;;1.562;100.0
15558;BME280;7880;50.110;9.372;2023-04-08T03:18:26;1.7192347937321757;;;1.437;100.0
15558;BME280;7880;50.110;9.372;2023-04-08T03:23:30;1.9461158132413403;;;1.687;100.0
15558;BME280;7880;50.110;9.372;2023-04-08T03:28:35;1.885614150413312;;;1.687;100.0
15558;BME280;7880;50.110;9.372;2023-04-08T03:33:39;1.9108231714984867;;;1.75;100.0
15558;BME280;7880;50.110;9.372;2023-04-08T03:38:54;2.087286522821523;;;1.75;100.0
15558;BME280;7880;50.110;9.372;2023-04-08T03:43:49;2.082244707836071;;;1.812;100.0
15558;BME280;7880;50.110;9.372;2023-04-08T03:48:53;2.0368683860637247;;;1.875;100.0
15558;BME280;7880;50.110;9.372;2023-04-08T03:54:02;1.8099871308135334;;;1.687;100.0
15558;BME280;7880;50.110;9.372;2023-04-08T03:59:03;1.880572347069392;;;1.625;100.0
15558;BME280;7880;50.110;9.372;2023-04-08T04:04:08;1.7494855622819159;;;1.625;100.0
15558;BME280;7880;50.110;9.372;2023-04-08T04:09:17;1.8099871308135334;;;1.687;100.0
15558;BME280;7880;50.110;9.372;2023-04-08T04:14:16;1.8654469387838617;;;1.562;100.0
15558;BME280;7880;50.110;9.372;2023-04-08T04:19:29;1.7041094133863226;;;1.5;100.0
15558;BME280;7880;50.110;9.372;2023-04-08T04:24:31;1.936032199859619;;;1.625;100.0
15558;BME280;7880;50.110;9.372;2023-04-08T04:29:41;1.9763666603714227;;;1.75;100.0
15558;BME280;7880;50.110;9.372;2023-04-08T04:34:44;1.920906781969825;;;1.75;100.0
15558;BME280;7880;50.110;9.372;2023-04-08T04:39:54;1.9057813666993753;;;1.75;100.0
15558;BME280;7880;50.110;9.372;2023-04-08T04:44:56;1.7595691541268024;;;1.625;100.0
15558;BME280;7880;50.110;9.372;2023-04-08T04:50:00;1.9914920878654812;;;1.812;100.0
15558;BME280;7880;50.110;9.372;2023-04-08T04:55:05;1.9561994277872146;;;1.812;100.0
15558;BME280;7880;50.110;9.372;2023-04-08T05:00:18;2.0519938240351623;;;1.875;100.0
15558;BME280;7880;50.110;9.372;2023-04-08T05:05:17;2.011659328598762;;;1.875;100.0
15558;BME280;7880;50.110;9.372;2023-04-08T05:10:22;2.1780392423272135;;;2.0;100.0
15558;BME280;7880;50.110;9.372;2023-04-08T05:15:26;2.2587084054946898;;;2.125;100.0
15558;BME280;7880;50.110;9.372;2023-04-08T05:20:33;2.3948377872875426;;;2.25;100.0
15558;BME280;7880;50.110;9.372;2023-04-08T05:24:35;2.5713021164992824;;;2.5;100.0
15558;BME280;7880;50.110;9.372;2023-04-08T05:29:39;2.566260273574153;;;2.5;100.0
15558;BME280;7880;50.110;9.372;2023-04-08T05:34:43;2.6065950251242613;;;2.562;100.0
15558;BME280;7880;50.110;9.372;2023-04-08T05:39:47;2.500716342031956;;;2.5;100.0
15558;BME280;7880;50.110;9.372;2023-04-08T05:44:52;2.707431985490257;;;2.625;100.0
15558;BME280;7880;50.110;9.372;2023-04-08T05:49:56;2.7124738365644587;;;2.625;100.0
15558;BME280;7880;50.110;9.372;2023-04-08T05:54:59;2.94944116534316;;;2.875;100.0
15558;BME280;7880;50.110;9.372;2023-04-08T06:00:12;3.1158228654647244;;;3.125;100.0
15558;BME280;7880;50.110;9.372;2023-04-08T06:05:09;3.1712835026031825;;;3.187;100.0
15558;BME280;7880;50.110;9.372;2023-04-08T06:10:13;3.1561578708002345;;;3.187;100.0
15558;BME280;7880;50.110;9.372;2023-04-08T06:15:18;3.0704460067267063;;;3.125;100.0
15558;BME280;7880;50.110;9.372;2023-04-08T06:20:25;3.1712835026031825;;;3.187;100.0
15558;BME280;7880;50.110;9.372;2023-04-08T06:25:27;3.3275818512775004;;;3.312;100.0
15558;BME280;7880;50.110;9.372;2023-04-08T06:30:31;3.48892237553373;;;3.5;100.0
15558;BME280;7880;50.110;9.372;2023-04-08T06:35:39;3.579676551395096;;;3.562;100.0
15558;BME280;7880;50.110;9.372;2023-04-08T06:40:41;3.6048860614246223;;;3.625;100.0
15558;BME280;7880;50.110;9.372;2023-04-08T06:45:43;3.76118518600706;;;3.812;100.0
15558;BME280;7880;50.110;9.372;2023-04-08T06:50:48;3.826730063423747;;;3.875;100.0
15558;BME280;7880;50.110;9.372;2023-04-08T06:55:52;3.9477361201832535;;;4.0;100.0
15558;BME280;7880;50.110;9.372;2023-04-08T07:00:58;3.9679038126079833;;;4.062;100.0
15558;BME280;7880;50.110;9.372;2023-04-08T07:06:02;4.144371319958009;;;4.187;100.0
15558;BME280;7880;50.110;9.372;2023-04-08T07:11:10;4.300671409914503;;;4.375;100.0
15558;BME280;7880;50.110;9.372;2023-04-08T07:16:12;4.3813425335159994;;;4.5;100.0
15558;BME280;7880;50.110;9.372;2023-04-08T07:21:17;4.421678123256425;;;4.562;100.0
15558;BME280;7880;50.110;9.372;2023-04-08T07:26:27;4.522517179098213;;;4.687;100.0
15558;BME280;7880;50.110;9.372;2023-04-08T07:31:28;4.577978709433228;;;4.687;100.0
15558;BME280;7880;50.110;9.372;2023-04-08T07:36:31;4.663692052854458;;;4.75;100.0
15558;BME280;7880;50.110;9.372;2023-04-08T07:41:35;4.693943841202417;;;4.812;100.0
15558;BME280;7880;50.110;9.372;2023-04-08T07:46:39;4.724195640027756;;;4.812;100.0
15558;BME280;7880;50.110;9.372;2023-04-08T07:51:43;4.734279575297842;;;4.812;100.0
15558;BME280;7880;50.110;9.372;2023-04-08T07:56:59;4.769573357910849;;;4.812;100.0
15558;BME280;7880;50.110;9.372;2023-04-08T08:01:53;4.8099091269308705;;;4.875;100.0
15558;BME280;7880;50.110;9.372;2023-04-08T08:06:59;4.769573357910849;;;4.812;100.0
15558;BME280;7880;50.110;9.372;2023-04-08T08:12:03;4.860328864399344;;;4.875;100.0
15558;BME280;7880;50.110;9.372;2023-04-08T08:17:07;4.8099091269308705;;;4.875;100.0
15558;BME280;7880;50.110;9.372;2023-04-08T08:22:10;4.8351189920271285;;;4.875;100.0
15558;BME280;7880;50.110;9.372;2023-04-08T08:27:27;4.885538744047517;;;4.875;100.0
15558;BME280;7880;50.110;9.372;2023-04-08T08:32:18;5.011588251427748;;;5.0;100.0
15558;BME280;7880;50.110;9.372;2023-04-08T08:37:26;5.208225846156711;;;5.187;100.0
15558;BME280;7880;50.110;9.372;2023-04-08T08:42:30;5.208225846156711;;;5.187;100.0
15558;BME280;7880;50.110;9.372;2023-04-08T08:47:33;5.29898180841119;;;5.312;100.0
15558;BME280;7880;50.110;9.372;2023-04-08T08:52:38;5.5258721265941855;;;5.5;100.0
15558;BME280;7880;50.110;9.372;2023-04-08T08:57:57;5.591418328235159;;;5.687;100.0
15558;BME280;7880;50.110;9.372;2023-04-08T09:02:47;5.591418328235159;;;5.687;100.0
15558;BME280;7880;50.110;9.372;2023-04-08T09:07:56;5.712426829716423;;;5.75;100.0
15558;BME280;7880;50.110;9.372;2023-04-08T09:13:00;5.863687692309031;;;5.937;100.0
15558;BME280;7880;50.110;9.372;2023-04-08T09:18:20;6.146042003302137;;;6.125;100.0
15558;BME280;7880;50.110;9.372;2023-04-08T09:23:09;6.383018647343851;;;6.5;100.0
15558;BME280;7880;50.110;9.372;2023-04-08T09:28:18;6.307387733651558;;;6.312;100.0
15558;BME280;7880;50.110;9.372;2023-04-08T09:33:29;6.463691694126465;;;6.5;100.0
15558;BME280;7880;50.110;9.372;2023-04-08T09:38:21;6.529238599498058;;;6.562;100.0
15558;BME280;7880;50.110;9.372;2023-04-08T09:43:35;6.6502484001743145;;;6.687;100.0
15558;BME280;7880;50.110;9.372;2023-04-08T09:48:44;7.003194609662751;;;6.937;100.0
15558;BME280;7880;50.110;9.372;2023-04-08T09:53:45;7.109078750596382;;;7.125;100.0
15558;BME280;7880;50.110;9.372;2023-04-08T09:58:51;7.1040366457367785;;;7.187;100.0
15558;BME280;7880;50.110;9.372;2023-04-08T10:03:49;7.043531410122523;;;7.062;100.0
15558;BME280;7880;50.110;9.372;2023-04-08T10:08:52;7.2603420317173;;;7.25;100.0
15558;BME280;7880;50.110;9.372;2023-04-08T10:13:56;7.396479208680103;;;7.437;100.0
15558;BME280;7880;50.110;9.372;2023-04-08T10:20:01;7.3763107246311845;;;7.437;100.0
15558;BME280;7880;50.110;9.372;2023-04-08T10:25:44;7.295636835001642;;;7.312;100.0
15558;BME280;7880;50.110;9.372;2023-04-08T10:29:45;7.456984688766534;;;7.375;100.0
15558;BME280;7880;50.110;9.372;2023-04-08T10:34:27;7.542700857296586;;;7.437;100.0
15558;BME280;7880;50.110;9.372;2023-04-08T10:39:35;7.739344149973476;;;7.687;100.0
15558;BME280;7880;50.110;9.372;2023-04-08T10:44:43;7.981367271725321;;;7.937;100.0
15558;BME280;7880;50.110;9.372;2023-04-08T10:49:41;8.041873156937072;;;8.0;100.0
15558;BME280;7880;50.110;9.372;2023-04-08T10:54:47;7.8149763034889475;;;7.937;100.0
15558;BME280;7880;50.110;9.372;2023-04-08T10:59:56;8.293981463095406;;;8.187;100.0
15558;BME280;7880;50.110;9.372;2023-04-08T11:05:03;8.722567253396846;;;8.562;100.0
15558;BME280;7880;50.110;9.372;2023-04-08T11:10:02;9.020057450054447;;;9.0;100.0
15558;BME280;7880;50.110;9.372;2023-04-08T11:15:06;9.393182179756696;;;9.187;100.0
15558;BME280;7880;50.110;9.372;2023-04-08T11:20:14;9.050310747144977;;;9.062;100.0
15558;BME280;7880;50.110;9.372;2023-04-08T11:25:15;8.798200258199358;;;8.875;100.0
15558;BME280;7880;50.110;9.372;2023-04-08T11:30:25;8.5360061215295;;;8.562;100.0
15558;BME280;7880;50.110;9.372;2023-04-08T11:35:23;8.611638964805753;;;8.562;100.0
15558;BME280;7880;50.110;9.372;2023-04-08T11:40:28;8.778031450515845;;;8.687;100.0
15558;BME280;7880;50.110;9.372;2023-04-08T11:45:37;8.878875535499537;;;8.812;100.0
15558;BME280;7880;50.110;9.372;2023-04-08T11:50:39;8.808284663787344;;;8.812;100.0
15558;BME280;7880;50.110;9.372;2023-04-08T11:55:43;8.808284663787344;;;8.75;100.0
15558;BME280;7880;50.110;9.372;2023-04-08T12:00:48;8.803242460847832;;;8.75;100.0
15558;BME280;7880;50.110;9.372;2023-04-08T12:05:51;8.88895995040075;;;8.812;100.0
15558;BME280;7880;50.110;9.372;2023-04-08T12:10:56;9.050310747144977;;;9.0;100.0
15558;BME280;7880;50.110;9.372;2023-04-08T12:15:59;8.873833328485489;;;8.875;100.0
15558;BME280;7880;50.110;9.372;2023-04-08T12:21:18;8.747778247721726;;;8.625;100.0
15558;BME280;7880;50.110;9.372;2023-04-08T12:26:07;9.67050564645324;;;9.687;100.0
15558;BME280;7880;50.110;9.372;2023-04-08T12:31:12;9.161239592783385;;;9.25;100.0
15558;BME280;7880;50.110;9.372;2023-04-08T12:36:18;9.045268530235626;;;9.125;100.0
15558;BME280;7880;50.110;9.372;2023-04-08T12:41:23;8.813326867017896;;;8.812;100.0
15558;BME280;7880;50.110;9.372;2023-04-08T12:46:26;8.853664503339678;;;8.812;100.0
15558;BME280;7880;50.110;9.372;2023-04-08T12:51:31;8.934339831862598;;;8.812;100.0
15558;BME280;7880;50.110;9.372;2023-04-08T12:56:38;8.919213202089304;;;8.812;100.0
15558;BME280;7880;50.110;9.372;2023-04-08T13:01:39;9.181408488942543;;;9.062;100.0
15558;BME280;7880;50.110;9.372;2023-04-08T13:06:44;8.989804163441296;;;8.937;100.0
15558;BME280;7880;50.110;9.372;2023-04-08T13:11:49;9.241915205359692;;;9.125;100.0
15558;BME280;7880;50.110;9.372;2023-04-08T13:16:54;9.100732932245592;;;9.0;100.0
15558;BME280;7880;50.110;9.372;2023-04-08T13:22:03;9.141070701280842;;;9.062;100.0
15558;BME280;7880;50.110;9.372;2023-04-08T13:27:02;9.236872977390885;;;9.125;100.0
15558;BME280;7880;50.110;9.372;2023-04-08T13:32:07;9.302421963686356;;;9.25;100.0
15558;BME280;7880;50.110;9.372;2023-04-08T13:37:12;9.186450713709927;;;9.187;100.0
15558;BME280;7880;50.110;9.372;2023-04-08T13:42:19;9.458731283340603;;;9.25;100.0
15558;BME280;7880;50.110;9.372;2023-04-08T13:47:24;9.488984732353128;;;9.437;100.0
15558;BME280;7880;50.110;9.372;2023-04-08T13:52:29;9.4789002481848;;;9.437;100.0
15558;BME280;7880;50.110;9.372;2023-04-08T13:57:33;9.635209883615607;;;9.5;100.0
15558;BME280;7880;50.110;9.372;2023-04-08T14:02:37;9.741097214911132;;;9.625;100.0
15558;BME280;7880;50.110;9.372;2023-04-08T14:07:41;9.58478739001439;;;9.562;100.0
15558;BME280;7880;50.110;9.372;2023-04-08T14:12:46;9.635209883615607;;;9.562;100.0
15558;BME280;7880;50.110;9.372;2023-04-08T14:18:03;9.700759168807418;;;9.625;100.0
15558;BME280;7880;50.110;9.372;2023-04-08T14:22:56;9.549491661810317;;;9.562;100.0
15558;BME280;7880;50.110;9.372;2023-04-08T14:27:59;9.423435606068233;;;9.375;100.0
15558;BME280;7880;50.110;9.372;2023-04-08T14:33:04;9.393182179756696;;;9.312;100.0
15558;BME280;7880;50.110;9.372;2023-04-08T14:38:07;9.378055470529944;;;9.312;100.0
15558;BME280;7880;50.110;9.372;2023-04-08T14:43:11;9.428477844805457;;;9.312;100.0
15558;BME280;7880;50.110;9.372;2023-04-08T14:48:18;9.352844294306124;;;9.312;100.0
15558;BME280;7880;50.110;9.372;2023-04-08T14:53:23;9.312506427482003;;;9.25;100.0
15558;BME280;7880;50.110;9.372;2023-04-08T14:58:30;9.2620841201453;;;9.187;100.0
15558;BME280;7880;50.110;9.372;2023-04-08T15:03:32;9.186450713709927;;;9.125;100.0
15558;BME280;7880;50.110;9.372;2023-04-08T15:08:35;9.130986257275799;;;9.062;100.0
15558;BME280;7880;50.110;9.372;2023-04-08T15:13:39;9.080564054712886;;;9.0;100.0
15558;BME280;7880;50.110;9.372;2023-04-08T15:18:43;9.100732932245592;;;9.0;100.0
15558;BME280;7880;50.110;9.372;2023-04-08T15:23:52;9.080564054712886;;;8.937;100.0
15558;BME280;7880;50.110;9.372;2023-04-08T15:28:53;9.070479617692763;;;9.0;100.0
15558;BME280;7880;50.110;9.372;2023-04-08T15:33:13;9.035184097290038;;;8.937;100.0
15558;BME280;7880;50.110;9.372;2023-04-08T15:38:16;8.909128783695632;;;8.875;100.0
15558;BME280;7880;50.110;9.372;2023-04-08T15:43:20;8.83349568285048;;;8.812;100.0
15558;BME280;7880;50.110;9.372;2023-04-08T15:48:28;8.83349568285048;;;8.75;100.0
15558;BME280;7880;50.110;9.372;2023-04-08T15:53:32;8.863748915330508;;;8.75;100.0
15558;BME280;7880;50.110;9.372;2023-04-08T15:58:36;8.868791121762479;;;8.812;100.0
15558;BME280;7880;50.110;9.372;2023-04-08T16:03:42;8.742736048274674;;;8.75;100.0
15558;BME280;7880;50.110;9.372;2023-04-08T16:08:46;8.65701870220364;;;8.625;100.0
15558;BME280;7880;50.110;9.372;2023-04-08T16:13:58;8.707440660294377;;;8.625;100.0
15558;BME280;7880;50.110;9.372;2023-04-08T16:19:04;8.65701870220364;;;8.562;100.0
15558;BME280;7880;50.110;9.372;2023-04-08T16:24:09;8.626765541319037;;;8.5;100.0
15558;BME280;7880;50.110;9.372;2023-04-08T16:29:13;8.601554581918753;;;8.5;100.0
15558;BME280;7880;50.110;9.372;2023-04-08T16:34:17;8.581385819637216;;;8.5;100.0
15558;BME280;7880;50.110;9.372;2023-04-08T16:39:22;8.546090496849502;;;8.5;100.0
15558;BME280;7880;50.110;9.372;2023-04-08T16:44:31;8.420035889022984;;;8.375;100.0
15558;BME280;7880;50.110;9.372;2023-04-08T16:49:35;8.52592174737365;;;8.437;100.0
15558;BME280;7880;50.110;9.372;2023-04-08T16:54:45;8.455331160878995;;;8.437;100.0
15558;BME280;7880;50.110;9.372;2023-04-08T16:59:44;8.571301440242678;;;8.437;100.0
15558;BME280;7880;50.110;9.372;2023-04-08T17:04:49;8.510795188322664;;;8.375;100.0
15558;BME280;7880;50.110;9.372;2023-04-08T17:09:54;8.50575300255441;;;8.437;100.0
15558;BME280;7880;50.110;9.372;2023-04-08T17:14:59;8.626765541319037;;;8.5;100.0
15558;BME280;7880;50.110;9.372;2023-04-08T17:20:05;8.530963934306055;;;8.437;100.0
15558;BME280;7880;50.110;9.372;2023-04-08T17:25:12;8.324234508728841;;;8.312;100.0
15558;BME280;7880;50.110;9.372;2023-04-08T17:30:13;8.435162432357902;;;8.312;100.0
15558;BME280;7880;50.110;9.372;2023-04-08T17:35:17;8.450288978312164;;;8.312;100.0
15558;BME280;7880;50.110;9.372;2023-04-08T17:40:21;8.293981463095406;;;8.187;100.0
15558;BME280;7880;50.110;9.372;2023-04-08T17:45:35;8.273812771827215;;;8.125;100.0
15558;BME280;7880;50.110;9.372;2023-04-08T17:50:32;8.157842887402513;;;8.062;100.0
15558;BME280;7880;50.110;9.372;2023-04-08T17:55:34;8.147758556902408;;;8.062;100.0
15558;BME280;7880;50.110;9.372;2023-04-08T18:00:47;8.041873156937072;;;8.0;100.0
15558;BME280;7880;50.110;9.372;2023-04-08T18:05:45;8.142716392088914;;;8.0;100.0
15558;BME280;7880;50.110;9.372;2023-04-08T18:10:55;8.077168275997973;;;8.0;100.0
15558;BME280;7880;50.110;9.372;2023-04-08T18:16:01;7.910777125280584;;;7.812;100.0
15558;BME280;7880;50.110;9.372;2023-04-08T18:21:00;8.001535895472625;;;7.875;100.0
15558;BME280;7880;50.110;9.372;2023-04-08T18:26:05;7.981367271725321;;;7.812;100.0
15558;BME280;7880;50.110;9.372;2023-04-08T18:31:10;7.951114344835514;;;7.812;100.0
15558;BME280;7880;50.110;9.372;2023-04-08T18:36:13;7.910777125280584;;;7.75;100.0
15558;BME280;7880;50.110;9.372;2023-04-08T18:41:20;7.880524222837994;;;7.812;100.0
15558;BME280;7880;50.110;9.372;2023-04-08T18:46:31;7.825060595571995;;;7.687;100.0
15558;BME280;7880;50.110;9.372;2023-04-08T18:51:30;7.8149763034889475;;;7.687;100.0
15558;BME280;7880;50.110;9.372;2023-04-08T18:56:40;7.739344149973476;;;7.625;100.0
15558;BME280;7880;50.110;9.372;2023-04-08T19:02:00;7.683880612347275;;;7.562;100.0
15558;BME280;7880;50.110;9.372;2023-04-08T19:06:44;7.925903580430895;;;7.812;100.0
15558;BME280;7880;50.110;9.372;2023-04-08T19:11:48;7.653627788485028;;;7.625;100.0
15558;BME280;7880;50.110;9.372;2023-04-08T19:16:54;7.451942563825287;;;7.375;100.0
15558;BME280;7880;50.110;9.372;2023-04-08T19:22:05;7.209920908906497;;;7.125;100.0
15558;BME280;7880;50.110;9.372;2023-04-08T19:27:05;7.088910332904197;;;6.937;100.0
15558;BME280;7880;50.110;9.372;2023-04-08T19:32:09;6.867058045626618;;;6.625;100.0
15558;BME280;7880;50.110;9.372;2023-04-08T19:37:13;6.7006691999326;;;6.437;100.0
15558;BME280;7880;50.110;9.372;2023-04-08T19:42:18;6.5847014039987695;;;6.375;100.0
15558;BME280;7880;50.110;9.372;2023-04-08T19:47:28;6.337640091270441;;;6.187;100.0
15558;BME280;7880;50.110;9.372;2023-04-08T19:52:32;6.302345675067045;;;6.0;100.0
15558;BME280;7880;50.110;9.372;2023-04-08T19:57:32;6.277135386510054;;;6.0;100.0
15558;BME280;7880;50.110;9.372;2023-04-08T20:02:37;5.989738611225039;;;5.687;100.0
15558;BME280;7880;50.110;9.372;2023-04-08T20:07:41;5.767889115586877;;;5.562;100.0
15558;BME280;7880;50.110;9.372;2023-04-08T20:12:53;5.67209064392955;;;5.312;100.0
15558;BME280;7880;50.110;9.372;2023-04-08T20:17:53;5.68721671141684;;;5.312;100.0
15558;BME280;7880;50.110;9.372;2023-04-08T20:22:56;5.540998168761144;;;5.125;100.0
15558;BME280;7880;50.110;9.372;2023-04-08T20:28:02;5.3796538540220356;;;5.062;100.0
15558;BME280;7880;50.110;9.372;2023-04-08T20:33:07;5.258645813545445;;;5.0;100.0
15558;BME280;7880;50.110;9.372;2023-04-08T20:37:31;5.208225846156711;;;4.937;100.0
15558;BME280;7880;50.110;9.372;2023-04-08T20:42:36;5.046882146090502;;;4.812;100.0
15558;BME280;7880;50.110;9.372;2023-04-08T20:47:43;4.744363511732081;;;4.312;100.0
15558;BME280;7880;50.110;9.372;2023-04-08T20:52:47;4.714111705921823;;;4.312;100.0
15558;BME280;7880;50.110;9.372;2023-04-08T20:57:53;4.668734016851522;;;4.25;100.0
15558;BME280;7880;50.110;9.372;2023-04-08T21:02:57;4.366216692165471;;;4.0;100.0
15558;BME280;7880;50.110;9.372;2023-04-08T21:08:00;4.572936750674853;;;4.125;100.0
15558;BME280;7880;50.110;9.372;2023-04-08T21:13:05;4.487223496311344;;;4.062;100.0
15558;BME280;7880;50.110;9.372;2023-04-08T21:18:10;4.260335876053432;;;3.875;100.0
15558;BME280;7880;50.110;9.372;2023-04-08T21:23:13;4.129245519643883;;;3.812;100.0
15558;BME280;7880;50.110;9.372;2023-04-08T21:28:16;4.209916484920541;;;3.687;100.0
15558;BME280;7880;50.110;9.372;2023-04-08T21:33:23;4.013281137589365;;;3.687;100.0
15558;BME280;7880;50.110;9.372;2023-04-08T21:38:25;3.912442669644952;;;3.5;100.0
15558;BME280;7880;50.110;9.372;2023-04-08T21:43:28;3.9225265112007035;;;3.562;100.0
15558;BME280;7880;50.110;9.372;2023-04-08T21:48:32;3.776310922583798;;;3.437;100.0
15558;BME280;7880;50.110;9.372;2023-04-08T21:53:37;3.6099279643036426;;;3.312;100.0
15558;BME280;7880;50.110;9.372;2023-04-08T21:58:41;3.493964271718869;;;3.125;100.0
15558;BME280;7880;50.110;9.372;2023-04-08T22:03:45;3.48892237553373;;;3.125;100.0
15558;BME280;7880;50.110;9.372;2023-04-08T22:08:50;3.433461536705727;;;2.937;100.0
15558;BME280;7880;50.110;9.372;2023-04-08T22:13:54;3.453629110386828;;;3.0;100.0
15558;BME280;7880;50.110;9.372;2023-04-08T22:18:58;3.3074143067002297;;;2.937;100.0
15558;BME280;7880;50.110;9.372;2023-04-08T22:24:08;3.2771629985654727;;;2.875;100.0
15558;BME280;7880;50.110;9.372;2023-04-08T22:29:07;3.1107809911074584;;;2.687;100.0
15558;BME280;7880;50.110;9.372;2023-04-08T22:34:12;2.7679342175892088;;;2.375;100.0
15558;BME280;7880;50.110;9.372;2023-04-08T22:39:27;2.8284364915976767;;;2.437;100.0
15558;BME280;7880;50.110;9.372;2023-04-08T22:44:21;2.8486039255803917;;;2.437;100.0
15558;BME280;7880;50.110;9.372;2023-04-08T22:49:25;2.9998598288802896;;;2.562;100.0
15558;BME280;7880;50.110;9.372;2023-04-08T22:54:29;2.717515687929699;;;2.375;100.0
15558;BME280;7880;50.110;9.372;2023-04-08T22:59:39;2.8284364915976767;;;2.437;100.0
15558;BME280;7880;50.110;9.372;2023-04-08T23:04:38;2.8284364915976767;;;2.437;100.0
15558;BME280;7880;50.110;9.372;2023-04-08T23:09:43;2.788101637602085;;;2.437;100.0
15558;BME280;7880;50.110;9.372;2023-04-08T23:14:47;2.5763439597154503;;;2.187;100.0
15558;BME280;7880;50.110;9.372;2023-04-08T23:19:51;2.657013490755344;;;2.125;100.0
15558;BME280;7880;50.110;9.372;2023-04-08T23:24:57;2.546092904784018;;;2.25;100.0
15558;BME280;7880;50.110;9.372;2023-04-08T23:30:06;2.470465313293971;;;2.25;100.0
15558;BME280;7880;50.110;9.372;2023-04-08T23:35:18;2.4906326646218075;;;2.125;100.0
15558;BME280;7880;50.110;9.372;2023-04-08T23:40:12;2.2032483478134965;;;1.937;100.0
15558;BME280;7880;50.110;9.372;2023-04-08T23:45:14;2.2637502306664827;;;1.937;100.0
15558;BME280;7880;50.110;9.372;2023-04-08T23:50:22;2.2284574605757372;;;2.0;100.0
15558;BME280;7880;50.110;9.372;2023-04-08T23:55:32;2.2738338818831836;;;2.062;100.0
